sensor_id;sensor_type;location;lat;lon;timestamp;temperature;humidity
21473;DHT22;10898;48.072;11.682;2023-11-21T00:00:56;7.20;81.20
21473;DHT22;10898;48.072;11.682;2023-11-21T00:02:58;7.30;81.40
21473;DHT22;10898;48.072;11.682;2023-11-21T00:05:00;7.30;81.50
21473;DHT22;10898;48.072;11.682;2023-11-21T00:07:02;7.30;81.60
21473;DHT22;10898;48.072;11.682;2023-11-21T00:09:03;7.30;82.10
21473;DHT22;10898;48.072;11.682;2023-11-21T00:11:06;7.30;82.10
21473;DHT22;10898;48.072;11.682;2023-11-21T00:13:08;7.40;82.40
21473;DHT22;10898;48.072;11.682;2023-11-21T00:15:10;7.30;82.40
21473;DHT22;10898;48.072;11.682;2023-11-21T00:17:15;7.30;83.20
21473;DHT22;10898;48.072;11.682;2023-11-21T00:19:17;7.20;84.00
21473;DHT22;10898;48.072;11.682;2023-11-21T00:21:18;7.20;83.80
21473;DHT22;10898;48.072;11.682;2023-11-21T00:23:20;7.20;84.70
21473;DHT22;10898;48.072;11.682;2023-11-21T00:25:22;7.20;84.60
21473;DHT22;10898;48.072;11.682;2023-11-21T00:27:24;7.20;85.00
21473;DHT22;10898;48.072;11.682;2023-11-21T00:29:26;7.20;85.10
21473;DHT22;10898;48.072;11.682;2023-11-21T00:31:28;7.20;85.80
21473;DHT22;10898;48.072;11.682;2023-11-21T00:33:29;7.20;85.80
21473;DHT22;10898;48.072;11.682;2023-11-21T00:35:31;7.20;85.40
21473;DHT22;10898;48.072;11.682;2023-11-21T00:37:33;7.20;85.60
21473;DHT22;10898;48.072;11.682;2023-11-21T00:39:35;7.10;85.40
21473;DHT22;10898;48.072;11.682;2023-11-21T00:41:37;7.20;85.90
21473;DHT22;10898;48.072;11.682;2023-11-21T00:43:38;7.10;85.70
21473;DHT22;10898;48.072;11.682;2023-11-21T00:45:40;7.10;85.70
21473;DHT22;10898;48.072;11.682;2023-11-21T00:47:42;7.10;86.40
21473;DHT22;10898;48.072;11.682;2023-11-21T00:49:44;7.10;85.90
21473;DHT22;10898;48.072;11.682;2023-11-21T00:51:46;7.10;86.30
21473;DHT22;10898;48.072;11.682;2023-11-21T00:53:48;7.10;86.60
21473;DHT22;10898;48.072;11.682;2023-11-21T00:55:50;7.10;87.20
21473;DHT22;10898;48.072;11.682;2023-11-21T00:57:55;7.10;87.30
21473;DHT22;10898;48.072;11.682;2023-11-21T00:59:56;7.10;87.60
21473;DHT22;10898;48.072;11.682;2023-11-21T01:01:58;7.00;87.80
21473;DHT22;10898;48.072;11.682;2023-11-21T01:04:02;7.00;87.70
21473;DHT22;10898;48.072;11.682;2023-11-21T01:06:04;7.00;87.70
21473;DHT22;10898;48.072;11.682;2023-11-21T01:08:09;7.00;87.70
21473;DHT22;10898;48.072;11.682;2023-11-21T01:10:12;7.00;87.60
21473;DHT22;10898;48.072;11.682;2023-11-21T01:12:13;6.90;88.20
21473;DHT22;10898;48.072;11.682;2023-11-21T01:14:15;6.90;88.40
21473;DHT22;10898;48.072;11.682;2023-11-21T01:16:19;6.90;88.60
21473;DHT22;10898;48.072;11.682;2023-11-21T01:18:21;6.90;88.50
21473;DHT22;10898;48.072;11.682;2023-11-21T01:20:23;6.90;88.70
21473;DHT22;10898;48.072;11.682;2023-11-21T01:22:25;6.80;88.40
21473;DHT22;10898;48.072;11.682;2023-11-21T01:24:28;6.80;88.20
21473;DHT22;10898;48.072;11.682;2023-11-21T01:26:29;6.80;88.10
21473;DHT22;10898;48.072;11.682;2023-11-21T01:28:31;6.80;88.20
21473;DHT22;10898;48.072;11.682;2023-11-21T01:30:33;6.70;88.10
21473;DHT22;10898;48.072;11.682;2023-11-21T01:32:38;6.70;88.10
21473;DHT22;10898;48.072;11.682;2023-11-21T01:34:41;6.70;88.20
21473;DHT22;10898;48.072;11.682;2023-11-21T01:36:43;6.70;88.30
21473;DHT22;10898;48.072;11.682;2023-11-21T01:38:47;6.60;88.40
21473;DHT22;10898;48.072;11.682;2023-11-21T01:40:49;6.60;88.50
21473;DHT22;10898;48.072;11.682;2023-11-21T01:42:53;6.60;88.70
21473;DHT22;10898;48.072;11.682;2023-11-21T01:44:55;6.60;88.90
21473;DHT22;10898;48.072;11.682;2023-11-21T01:46:57;6.60;88.80
21473;DHT22;10898;48.072;11.682;2023-11-21T01:48:59;6.60;88.70
21473;DHT22;10898;48.072;11.682;2023-11-21T01:51:01;6.60;88.90
21473;DHT22;10898;48.072;11.682;2023-11-21T01:53:03;6.50;88.70
21473;DHT22;10898;48.072;11.682;2023-11-21T01:55:07;6.50;88.80
21473;DHT22;10898;48.072;11.682;2023-11-21T01:57:10;6.50;88.50
21473;DHT22;10898;48.072;11.682;2023-11-21T01:59:12;6.50;88.60
21473;DHT22;10898;48.072;11.682;2023-11-21T02:01:15;6.50;88.80
21473;DHT22;10898;48.072;11.682;2023-11-21T02:03:17;6.50;88.50
21473;DHT22;10898;48.072;11.682;2023-11-21T02:05:19;6.50;88.30
21473;DHT22;10898;48.072;11.682;2023-11-21T02:07:21;6.50;88.50
21473;DHT22;10898;48.072;11.682;2023-11-21T02:09:28;6.50;88.20
21473;DHT22;10898;48.072;11.682;2023-11-21T02:11:31;6.50;87.90
21473;DHT22;10898;48.072;11.682;2023-11-21T02:13:36;6.50;87.60
21473;DHT22;10898;48.072;11.682;2023-11-21T02:15:38;6.50;87.70
21473;DHT22;10898;48.072;11.682;2023-11-21T02:17:41;6.50;87.50
21473;DHT22;10898;48.072;11.682;2023-11-21T02:19:43;6.60;87.40
21473;DHT22;10898;48.072;11.682;2023-11-21T02:21:52;6.60;87.20
21473;DHT22;10898;48.072;11.682;2023-11-21T02:23:54;6.60;87.20
21473;DHT22;10898;48.072;11.682;2023-11-21T02:25:56;6.60;86.70
21473;DHT22;10898;48.072;11.682;2023-11-21T02:28:01;6.60;86.80
21473;DHT22;10898;48.072;11.682;2023-11-21T02:30:03;6.60;87.70
21473;DHT22;10898;48.072;11.682;2023-11-21T02:32:06;6.60;87.80
21473;DHT22;10898;48.072;11.682;2023-11-21T02:34:08;6.70;87.20
21473;DHT22;10898;48.072;11.682;2023-11-21T02:36:10;6.70;86.70
21473;DHT22;10898;48.072;11.682;2023-11-21T02:38:12;6.70;86.40
21473;DHT22;10898;48.072;11.682;2023-11-21T02:40:14;6.70;86.30
21473;DHT22;10898;48.072;11.682;2023-11-21T02:42:19;6.80;86.50
21473;DHT22;10898;48.072;11.682;2023-11-21T02:44:21;6.80;86.60
21473;DHT22;10898;48.072;11.682;2023-11-21T02:46:23;6.80;86.70
21473;DHT22;10898;48.072;11.682;2023-11-21T02:48:25;6.80;86.70
21473;DHT22;10898;48.072;11.682;2023-11-21T02:50:27;6.80;87.00
21473;DHT22;10898;48.072;11.682;2023-11-21T02:52:29;6.80;87.50
21473;DHT22;10898;48.072;11.682;2023-11-21T02:54:31;6.80;87.70
21473;DHT22;10898;48.072;11.682;2023-11-21T02:56:37;6.80;87.80
21473;DHT22;10898;48.072;11.682;2023-11-21T02:58:41;6.90;88.10
21473;DHT22;10898;48.072;11.682;2023-11-21T03:00:45;6.90;88.50
21473;DHT22;10898;48.072;11.682;2023-11-21T03:02:47;6.80;88.80
21473;DHT22;10898;48.072;11.682;2023-11-21T03:04:49;6.80;88.90
21473;DHT22;10898;48.072;11.682;2023-11-21T03:06:51;6.80;89.20
21473;DHT22;10898;48.072;11.682;2023-11-21T03:08:53;6.80;89.80
21473;DHT22;10898;48.072;11.682;2023-11-21T03:10:55;6.70;90.90
21473;DHT22;10898;48.072;11.682;2023-11-21T03:12:57;6.70;91.10
21473;DHT22;10898;48.072;11.682;2023-11-21T03:14:59;6.70;91.80
21473;DHT22;10898;48.072;11.682;2023-11-21T03:17:01;6.70;91.70
21473;DHT22;10898;48.072;11.682;2023-11-21T03:19:03;6.70;91.50
21473;DHT22;10898;48.072;11.682;2023-11-21T03:21:06;6.70;91.80
21473;DHT22;10898;48.072;11.682;2023-11-21T03:23:10;6.70;91.40
21473;DHT22;10898;48.072;11.682;2023-11-21T03:25:12;6.70;91.50
21473;DHT22;10898;48.072;11.682;2023-11-21T03:27:14;6.70;91.50
21473;DHT22;10898;48.072;11.682;2023-11-21T03:29:16;6.80;92.10
21473;DHT22;10898;48.072;11.682;2023-11-21T03:31:18;6.80;92.30
21473;DHT22;10898;48.072;11.682;2023-11-21T03:33:20;6.80;91.10
21473;DHT22;10898;48.072;11.682;2023-11-21T03:35:22;6.80;91.30
21473;DHT22;10898;48.072;11.682;2023-11-21T03:37:24;6.80;91.60
21473;DHT22;10898;48.072;11.682;2023-11-21T03:39:26;6.80;91.20
21473;DHT22;10898;48.072;11.682;2023-11-21T03:41:28;6.80;90.90
21473;DHT22;10898;48.072;11.682;2023-11-21T03:43:30;6.80;91.10
21473;DHT22;10898;48.072;11.682;2023-11-21T03:45:32;6.70;91.90
21473;DHT22;10898;48.072;11.682;2023-11-21T03:47:34;6.80;91.10
21473;DHT22;10898;48.072;11.682;2023-11-21T03:49:36;6.70;91.50
21473;DHT22;10898;48.072;11.682;2023-11-21T03:51:38;6.70;91.50
21473;DHT22;10898;48.072;11.682;2023-11-21T03:53:40;6.70;91.30
21473;DHT22;10898;48.072;11.682;2023-11-21T03:55:42;6.80;91.20
21473;DHT22;10898;48.072;11.682;2023-11-21T03:57:44;6.80;91.20
21473;DHT22;10898;48.072;11.682;2023-11-21T03:59:46;6.80;91.30
21473;DHT22;10898;48.072;11.682;2023-11-21T04:01:48;6.80;90.60
21473;DHT22;10898;48.072;11.682;2023-11-21T04:03:50;6.80;90.60
21473;DHT22;10898;48.072;11.682;2023-11-21T04:05:52;6.80;90.50
21473;DHT22;10898;48.072;11.682;2023-11-21T04:07:54;6.80;90.80
21473;DHT22;10898;48.072;11.682;2023-11-21T04:09:56;6.80;90.30
21473;DHT22;10898;48.072;11.682;2023-11-21T04:11:58;6.80;90.30
21473;DHT22;10898;48.072;11.682;2023-11-21T04:14:00;6.80;90.50
21473;DHT22;10898;48.072;11.682;2023-11-21T04:16:02;6.80;90.30
21473;DHT22;10898;48.072;11.682;2023-11-21T04:18:05;6.80;90.00
21473;DHT22;10898;48.072;11.682;2023-11-21T04:20:08;6.80;89.70
21473;DHT22;10898;48.072;11.682;2023-11-21T04:22:12;6.80;90.30
21473;DHT22;10898;48.072;11.682;2023-11-21T04:24:15;6.80;90.40
21473;DHT22;10898;48.072;11.682;2023-11-21T04:26:16;6.80;90.70
21473;DHT22;10898;48.072;11.682;2023-11-21T04:28:18;6.80;90.60
21473;DHT22;10898;48.072;11.682;2023-11-21T04:30:21;6.80;90.30
21473;DHT22;10898;48.072;11.682;2023-11-21T04:32:23;6.80;90.20
21473;DHT22;10898;48.072;11.682;2023-11-21T04:34:24;6.80;90.70
21473;DHT22;10898;48.072;11.682;2023-11-21T04:36:26;6.80;90.80
21473;DHT22;10898;48.072;11.682;2023-11-21T04:38:28;6.80;90.90
21473;DHT22;10898;48.072;11.682;2023-11-21T04:40:30;6.80;90.50
21473;DHT22;10898;48.072;11.682;2023-11-21T04:42:36;6.90;90.20
21473;DHT22;10898;48.072;11.682;2023-11-21T04:44:38;6.80;90.00
21473;DHT22;10898;48.072;11.682;2023-11-21T04:46:42;6.80;90.50
21473;DHT22;10898;48.072;11.682;2023-11-21T04:48:44;6.80;90.40
21473;DHT22;10898;48.072;11.682;2023-11-21T04:50:46;6.90;90.60
21473;DHT22;10898;48.072;11.682;2023-11-21T04:52:48;6.90;90.50
21473;DHT22;10898;48.072;11.682;2023-11-21T04:54:50;6.90;90.10
21473;DHT22;10898;48.072;11.682;2023-11-21T04:56:51;6.90;90.30
21473;DHT22;10898;48.072;11.682;2023-11-21T04:58:54;6.90;90.30
21473;DHT22;10898;48.072;11.682;2023-11-21T05:00:56;6.80;90.80
21473;DHT22;10898;48.072;11.682;2023-11-21T05:02:57;6.80;91.30
21473;DHT22;10898;48.072;11.682;2023-11-21T05:05:00;6.80;91.20
21473;DHT22;10898;48.072;11.682;2023-11-21T05:07:02;6.70;91.40
21473;DHT22;10898;48.072;11.682;2023-11-21T05:09:04;6.80;91.40
21473;DHT22;10898;48.072;11.682;2023-11-21T05:11:06;6.70;91.70
21473;DHT22;10898;48.072;11.682;2023-11-21T05:13:09;6.80;92.20
21473;DHT22;10898;48.072;11.682;2023-11-21T05:15:14;6.70;92.00
21473;DHT22;10898;48.072;11.682;2023-11-21T05:17:17;6.80;91.60
21473;DHT22;10898;48.072;11.682;2023-11-21T05:19:19;6.70;91.40
21473;DHT22;10898;48.072;11.682;2023-11-21T05:21:21;6.70;91.50
21473;DHT22;10898;48.072;11.682;2023-11-21T05:23:22;6.70;91.50
21473;DHT22;10898;48.072;11.682;2023-11-21T05:25:24;6.70;91.50
21473;DHT22;10898;48.072;11.682;2023-11-21T05:27:26;6.70;91.50
21473;DHT22;10898;48.072;11.682;2023-11-21T05:29:28;6.70;91.30
21473;DHT22;10898;48.072;11.682;2023-11-21T05:31:29;6.70;91.50
21473;DHT22;10898;48.072;11.682;2023-11-21T05:33:31;6.70;91.50
21473;DHT22;10898;48.072;11.682;2023-11-21T05:35:34;6.70;91.30
21473;DHT22;10898;48.072;11.682;2023-11-21T05:37:36;6.70;91.20
21473;DHT22;10898;48.072;11.682;2023-11-21T05:39:40;6.70;91.40
21473;DHT22;10898;48.072;11.682;2023-11-21T05:41:42;6.60;91.40
21473;DHT22;10898;48.072;11.682;2023-11-21T05:43:43;6.60;91.50
21473;DHT22;10898;48.072;11.682;2023-11-21T05:45:45;6.60;91.40
21473;DHT22;10898;48.072;11.682;2023-11-21T05:47:47;6.60;91.50
21473;DHT22;10898;48.072;11.682;2023-11-21T05:49:49;6.60;91.60
21473;DHT22;10898;48.072;11.682;2023-11-21T05:51:53;6.60;91.80
21473;DHT22;10898;48.072;11.682;2023-11-21T05:53:55;6.60;91.70
21473;DHT22;10898;48.072;11.682;2023-11-21T05:55:57;6.60;91.80
21473;DHT22;10898;48.072;11.682;2023-11-21T05:57:59;6.60;92.20
21473;DHT22;10898;48.072;11.682;2023-11-21T06:00:01;6.60;92.10
21473;DHT22;10898;48.072;11.682;2023-11-21T06:02:11;6.60;92.50
21473;DHT22;10898;48.072;11.682;2023-11-21T06:04:13;6.60;92.80
21473;DHT22;10898;48.072;11.682;2023-11-21T06:06:16;6.60;92.90
21473;DHT22;10898;48.072;11.682;2023-11-21T06:08:18;6.70;92.60
21473;DHT22;10898;48.072;11.682;2023-11-21T06:10:21;6.70;92.80
21473;DHT22;10898;48.072;11.682;2023-11-21T06:12:23;6.70;92.10
21473;DHT22;10898;48.072;11.682;2023-11-21T06:14:24;6.70;92.30
21473;DHT22;10898;48.072;11.682;2023-11-21T06:16:26;6.70;92.20
21473;DHT22;10898;48.072;11.682;2023-11-21T06:18:29;6.60;92.30
21473;DHT22;10898;48.072;11.682;2023-11-21T06:20:32;6.70;92.40
21473;DHT22;10898;48.072;11.682;2023-11-21T06:22:33;6.70;92.30
21473;DHT22;10898;48.072;11.682;2023-11-21T06:24:36;6.80;92.30
21473;DHT22;10898;48.072;11.682;2023-11-21T06:26:38;6.70;92.20
21473;DHT22;10898;48.072;11.682;2023-11-21T06:28:40;6.70;92.60
21473;DHT22;10898;48.072;11.682;2023-11-21T06:30:43;6.70;92.60
21473;DHT22;10898;48.072;11.682;2023-11-21T06:32:45;6.80;92.70
21473;DHT22;10898;48.072;11.682;2023-11-21T06:34:48;6.80;92.90
21473;DHT22;10898;48.072;11.682;2023-11-21T06:36:51;6.80;92.90
21473;DHT22;10898;48.072;11.682;2023-11-21T06:38:53;6.80;93.20
21473;DHT22;10898;48.072;11.682;2023-11-21T06:40:55;6.80;93.10
21473;DHT22;10898;48.072;11.682;2023-11-21T06:42:57;6.80;93.40
21473;DHT22;10898;48.072;11.682;2023-11-21T06:45:00;6.80;92.70
21473;DHT22;10898;48.072;11.682;2023-11-21T06:47:05;6.80;92.20
21473;DHT22;10898;48.072;11.682;2023-11-21T06:49:07;6.80;92.60
21473;DHT22;10898;48.072;11.682;2023-11-21T06:51:09;6.80;93.10
21473;DHT22;10898;48.072;11.682;2023-11-21T06:53:11;6.80;92.70
21473;DHT22;10898;48.072;11.682;2023-11-21T06:55:13;6.80;92.50
21473;DHT22;10898;48.072;11.682;2023-11-21T06:57:15;6.80;92.10
21473;DHT22;10898;48.072;11.682;2023-11-21T06:59:17;6.80;91.90
21473;DHT22;10898;48.072;11.682;2023-11-21T07:01:19;6.80;91.90
21473;DHT22;10898;48.072;11.682;2023-11-21T07:03:21;6.80;92.20
21473;DHT22;10898;48.072;11.682;2023-11-21T07:05:23;6.80;92.20
21473;DHT22;10898;48.072;11.682;2023-11-21T07:07:25;6.90;92.20
21473;DHT22;10898;48.072;11.682;2023-11-21T07:09:27;6.90;92.10
21473;DHT22;10898;48.072;11.682;2023-11-21T07:11:29;6.90;91.90
21473;DHT22;10898;48.072;11.682;2023-11-21T07:13:31;6.90;92.40
21473;DHT22;10898;48.072;11.682;2023-11-21T07:15:32;6.90;91.60
21473;DHT22;10898;48.072;11.682;2023-11-21T07:17:35;6.90;91.40
21473;DHT22;10898;48.072;11.682;2023-11-21T07:19:41;6.90;92.00
21473;DHT22;10898;48.072;11.682;2023-11-21T07:21:43;6.90;91.60
21473;DHT22;10898;48.072;11.682;2023-11-21T07:23:45;6.90;91.50
21473;DHT22;10898;48.072;11.682;2023-11-21T07:25:46;6.90;91.20
21473;DHT22;10898;48.072;11.682;2023-11-21T07:27:48;6.90;90.80
21473;DHT22;10898;48.072;11.682;2023-11-21T07:29:51;6.90;91.20
21473;DHT22;10898;48.072;11.682;2023-11-21T07:31:53;6.90;91.10
21473;DHT22;10898;48.072;11.682;2023-11-21T07:33:55;6.90;91.30
21473;DHT22;10898;48.072;11.682;2023-11-21T07:35:59;6.90;91.70
21473;DHT22;10898;48.072;11.682;2023-11-21T07:38:01;6.90;91.30
21473;DHT22;10898;48.072;11.682;2023-11-21T07:40:03;7.00;90.50
21473;DHT22;10898;48.072;11.682;2023-11-21T07:42:05;6.90;90.80
21473;DHT22;10898;48.072;11.682;2023-11-21T07:44:07;6.90;91.30
21473;DHT22;10898;48.072;11.682;2023-11-21T07:46:08;6.90;91.50
21473;DHT22;10898;48.072;11.682;2023-11-21T07:48:10;7.00;90.90
21473;DHT22;10898;48.072;11.682;2023-11-21T07:50:12;7.00;91.40
21473;DHT22;10898;48.072;11.682;2023-11-21T07:52:15;7.00;92.10
21473;DHT22;10898;48.072;11.682;2023-11-21T07:54:17;7.00;92.10
21473;DHT22;10898;48.072;11.682;2023-11-21T07:56:19;7.00;92.40
21473;DHT22;10898;48.072;11.682;2023-11-21T07:58:21;7.00;91.80
21473;DHT22;10898;48.072;11.682;2023-11-21T08:00:23;7.10;91.70
21473;DHT22;10898;48.072;11.682;2023-11-21T08:02:25;7.20;91.00
21473;DHT22;10898;48.072;11.682;2023-11-21T08:04:29;7.20;91.20
21473;DHT22;10898;48.072;11.682;2023-11-21T08:06:35;7.20;91.20
21473;DHT22;10898;48.072;11.682;2023-11-21T08:08:37;7.20;90.90
21473;DHT22;10898;48.072;11.682;2023-11-21T08:10:39;7.20;90.30
21473;DHT22;10898;48.072;11.682;2023-11-21T08:12:40;7.20;90.30
21473;DHT22;10898;48.072;11.682;2023-11-21T08:14:44;7.20;90.30
21473;DHT22;10898;48.072;11.682;2023-11-21T08:16:46;7.20;90.30
21473;DHT22;10898;48.072;11.682;2023-11-21T08:18:48;7.20;90.00
21473;DHT22;10898;48.072;11.682;2023-11-21T08:20:50;7.30;89.70
21473;DHT22;10898;48.072;11.682;2023-11-21T08:22:52;7.30;89.00
21473;DHT22;10898;48.072;11.682;2023-11-21T08:24:54;7.30;89.50
21473;DHT22;10898;48.072;11.682;2023-11-21T08:26:57;7.30;90.30
21473;DHT22;10898;48.072;11.682;2023-11-21T08:28:59;7.40;89.10
21473;DHT22;10898;48.072;11.682;2023-11-21T08:31:02;7.30;89.40
21473;DHT22;10898;48.072;11.682;2023-11-21T08:33:06;7.30;89.70
21473;DHT22;10898;48.072;11.682;2023-11-21T08:35:08;7.40;89.60
21473;DHT22;10898;48.072;11.682;2023-11-21T08:37:11;7.40;89.30
21473;DHT22;10898;48.072;11.682;2023-11-21T08:39:13;7.40;88.70
21473;DHT22;10898;48.072;11.682;2023-11-21T08:41:18;7.40;88.90
21473;DHT22;10898;48.072;11.682;2023-11-21T08:43:22;7.40;89.50
21473;DHT22;10898;48.072;11.682;2023-11-21T08:45:25;7.50;89.00
21473;DHT22;10898;48.072;11.682;2023-11-21T08:47:27;7.50;88.80
21473;DHT22;10898;48.072;11.682;2023-11-21T08:49:29;7.50;88.20
21473;DHT22;10898;48.072;11.682;2023-11-21T08:51:31;7.50;87.80
21473;DHT22;10898;48.072;11.682;2023-11-21T08:53:33;7.40;88.20
21473;DHT22;10898;48.072;11.682;2023-11-21T08:55:35;7.40;88.40
21473;DHT22;10898;48.072;11.682;2023-11-21T08:57:40;7.50;88.60
21473;DHT22;10898;48.072;11.682;2023-11-21T08:59:42;7.50;87.60
21473;DHT22;10898;48.072;11.682;2023-11-21T09:01:44;7.50;88.00
21473;DHT22;10898;48.072;11.682;2023-11-21T09:03:46;7.50;88.20
21473;DHT22;10898;48.072;11.682;2023-11-21T09:05:49;7.50;87.70
21473;DHT22;10898;48.072;11.682;2023-11-21T09:07:50;7.40;88.10
21473;DHT22;10898;48.072;11.682;2023-11-21T09:09:52;7.40;87.90
21473;DHT22;10898;48.072;11.682;2023-11-21T09:11:54;7.40;88.30
21473;DHT22;10898;48.072;11.682;2023-11-21T09:13:56;7.40;88.60
21473;DHT22;10898;48.072;11.682;2023-11-21T09:15:59;7.50;88.40
21473;DHT22;10898;48.072;11.682;2023-11-21T09:18:01;7.50;88.10
21473;DHT22;10898;48.072;11.682;2023-11-21T09:20:04;7.50;87.80
21473;DHT22;10898;48.072;11.682;2023-11-21T09:22:07;7.50;88.20
21473;DHT22;10898;48.072;11.682;2023-11-21T09:24:09;7.50;88.50
21473;DHT22;10898;48.072;11.682;2023-11-21T09:26:11;7.50;88.90
21473;DHT22;10898;48.072;11.682;2023-11-21T09:28:13;7.60;88.10
21473;DHT22;10898;48.072;11.682;2023-11-21T09:30:15;7.60;88.20
21473;DHT22;10898;48.072;11.682;2023-11-21T09:32:16;7.70;87.50
21473;DHT22;10898;48.072;11.682;2023-11-21T09:34:20;7.80;87.20
21473;DHT22;10898;48.072;11.682;2023-11-21T09:36:22;7.80;87.60
21473;DHT22;10898;48.072;11.682;2023-11-21T09:38:28;7.80;87.20
21473;DHT22;10898;48.072;11.682;2023-11-21T09:40:30;7.80;87.40
21473;DHT22;10898;48.072;11.682;2023-11-21T09:42:36;7.90;87.00
21473;DHT22;10898;48.072;11.682;2023-11-21T09:44:54;7.90;86.60
21473;DHT22;10898;48.072;11.682;2023-11-21T09:47:02;7.90;86.90
21473;DHT22;10898;48.072;11.682;2023-11-21T09:49:05;7.90;86.70
21473;DHT22;10898;48.072;11.682;2023-11-21T09:51:11;8.00;86.60
21473;DHT22;10898;48.072;11.682;2023-11-21T09:53:13;8.00;86.40
21473;DHT22;10898;48.072;11.682;2023-11-21T09:55:18;8.10;86.20
21473;DHT22;10898;48.072;11.682;2023-11-21T09:57:24;8.10;85.70
21473;DHT22;10898;48.072;11.682;2023-11-21T09:59:30;8.20;85.90
21473;DHT22;10898;48.072;11.682;2023-11-21T10:01:32;8.20;85.90
21473;DHT22;10898;48.072;11.682;2023-11-21T10:03:35;8.20;86.10
21473;DHT22;10898;48.072;11.682;2023-11-21T10:05:41;8.30;85.70
21473;DHT22;10898;48.072;11.682;2023-11-21T10:07:44;8.30;85.00
21473;DHT22;10898;48.072;11.682;2023-11-21T10:09:51;8.30;84.50
21473;DHT22;10898;48.072;11.682;2023-11-21T10:11:52;8.20;84.40
21473;DHT22;10898;48.072;11.682;2023-11-21T10:13:55;8.20;84.40
21473;DHT22;10898;48.072;11.682;2023-11-21T10:16:02;8.30;85.50
21473;DHT22;10898;48.072;11.682;2023-11-21T10:18:07;8.30;85.00
21473;DHT22;10898;48.072;11.682;2023-11-21T10:20:11;8.40;84.70
21473;DHT22;10898;48.072;11.682;2023-11-21T10:22:15;8.40;83.70
21473;DHT22;10898;48.072;11.682;2023-11-21T10:24:17;8.40;83.80
21473;DHT22;10898;48.072;11.682;2023-11-21T10:26:22;8.40;84.50
21473;DHT22;10898;48.072;11.682;2023-11-21T10:28:35;8.40;84.70
21473;DHT22;10898;48.072;11.682;2023-11-21T10:30:39;8.40;83.80
21473;DHT22;10898;48.072;11.682;2023-11-21T10:32:42;8.40;83.60
21473;DHT22;10898;48.072;11.682;2023-11-21T10:34:55;8.50;84.50
21473;DHT22;10898;48.072;11.682;2023-11-21T10:36:58;8.40;83.60
21473;DHT22;10898;48.072;11.682;2023-11-21T10:39:00;8.40;83.80
21473;DHT22;10898;48.072;11.682;2023-11-21T10:41:02;8.50;83.40
21473;DHT22;10898;48.072;11.682;2023-11-21T10:43:07;8.40;83.70
21473;DHT22;10898;48.072;11.682;2023-11-21T10:45:12;8.50;83.90
21473;DHT22;10898;48.072;11.682;2023-11-21T10:47:17;8.50;84.40
21473;DHT22;10898;48.072;11.682;2023-11-21T10:49:20;8.50;84.00
21473;DHT22;10898;48.072;11.682;2023-11-21T10:51:22;8.60;83.50
21473;DHT22;10898;48.072;11.682;2023-11-21T10:53:28;8.60;83.10
21473;DHT22;10898;48.072;11.682;2023-11-21T10:55:32;8.60;83.30
21473;DHT22;10898;48.072;11.682;2023-11-21T10:57:34;8.60;83.30
21473;DHT22;10898;48.072;11.682;2023-11-21T10:59:36;8.60;83.10
21473;DHT22;10898;48.072;11.682;2023-11-21T11:01:45;8.60;83.50
21473;DHT22;10898;48.072;11.682;2023-11-21T11:03:47;8.60;83.90
21473;DHT22;10898;48.072;11.682;2023-11-21T11:05:51;8.60;84.00
21473;DHT22;10898;48.072;11.682;2023-11-21T11:08:08;8.60;83.80
21473;DHT22;10898;48.072;11.682;2023-11-21T11:10:13;8.80;83.50
21473;DHT22;10898;48.072;11.682;2023-11-21T11:12:16;8.80;82.80
21473;DHT22;10898;48.072;11.682;2023-11-21T11:14:19;8.80;82.00
21473;DHT22;10898;48.072;11.682;2023-11-21T11:16:21;8.70;82.70
21473;DHT22;10898;48.072;11.682;2023-11-21T11:18:24;8.70;83.00
21473;DHT22;10898;48.072;11.682;2023-11-21T11:20:34;8.60;83.20
21473;DHT22;10898;48.072;11.682;2023-11-21T11:22:44;8.70;83.20
21473;DHT22;10898;48.072;11.682;2023-11-21T11:24:59;8.70;83.70
21473;DHT22;10898;48.072;11.682;2023-11-21T11:38:14;8.90;80.80
21473;DHT22;10898;48.072;11.682;2023-11-21T11:40:15;8.90;81.80
21473;DHT22;10898;48.072;11.682;2023-11-21T11:42:17;8.80;82.40
21473;DHT22;10898;48.072;11.682;2023-11-21T11:44:46;8.90;82.40
21473;DHT22;10898;48.072;11.682;2023-11-21T11:46:52;9.00;82.10
21473;DHT22;10898;48.072;11.682;2023-11-21T11:49:03;9.00;82.00
21473;DHT22;10898;48.072;11.682;2023-11-21T11:51:15;9.00;82.10
21473;DHT22;10898;48.072;11.682;2023-11-21T11:53:20;9.00;82.40
21473;DHT22;10898;48.072;11.682;2023-11-21T11:55:24;8.90;82.00
21473;DHT22;10898;48.072;11.682;2023-11-21T11:57:29;8.90;81.70
21473;DHT22;10898;48.072;11.682;2023-11-21T12:02:12;8.90;81.50
21473;DHT22;10898;48.072;11.682;2023-11-21T12:06:33;8.90;82.30
21473;DHT22;10898;48.072;11.682;2023-11-21T12:08:36;8.90;81.40
21473;DHT22;10898;48.072;11.682;2023-11-21T12:10:38;8.80;81.70
21473;DHT22;10898;48.072;11.682;2023-11-21T12:12:43;8.70;81.80
21473;DHT22;10898;48.072;11.682;2023-11-21T12:14:46;8.70;81.80
21473;DHT22;10898;48.072;11.682;2023-11-21T12:16:48;8.60;81.80
21473;DHT22;10898;48.072;11.682;2023-11-21T12:18:50;8.70;81.80
21473;DHT22;10898;48.072;11.682;2023-11-21T12:20:52;8.70;81.70
21473;DHT22;10898;48.072;11.682;2023-11-21T12:22:55;8.60;82.00
21473;DHT22;10898;48.072;11.682;2023-11-21T12:24:57;8.60;82.60
21473;DHT22;10898;48.072;11.682;2023-11-21T12:27:00;8.60;82.90
21473;DHT22;10898;48.072;11.682;2023-11-21T12:29:02;8.60;83.00
21473;DHT22;10898;48.072;11.682;2023-11-21T12:31:06;8.60;83.10
21473;DHT22;10898;48.072;11.682;2023-11-21T12:33:22;8.60;82.90
21473;DHT22;10898;48.072;11.682;2023-11-21T12:35:28;8.60;82.90
21473;DHT22;10898;48.072;11.682;2023-11-21T12:37:32;8.60;83.00
21473;DHT22;10898;48.072;11.682;2023-11-21T12:39:34;8.70;83.10
21473;DHT22;10898;48.072;11.682;2023-11-21T12:41:35;8.80;82.30
21473;DHT22;10898;48.072;11.682;2023-11-21T12:43:37;8.80;82.30
21473;DHT22;10898;48.072;11.682;2023-11-21T12:45:41;8.80;81.50
21473;DHT22;10898;48.072;11.682;2023-11-21T12:47:50;8.80;82.00
21473;DHT22;10898;48.072;11.682;2023-11-21T12:49:52;8.80;81.60
21473;DHT22;10898;48.072;11.682;2023-11-21T12:51:54;8.80;82.10
21473;DHT22;10898;48.072;11.682;2023-11-21T12:53:56;8.80;81.80
21473;DHT22;10898;48.072;11.682;2023-11-21T12:56:00;8.80;81.90
21473;DHT22;10898;48.072;11.682;2023-11-21T12:58:03;8.90;81.90
21473;DHT22;10898;48.072;11.682;2023-11-21T13:00:13;8.90;82.10
21473;DHT22;10898;48.072;11.682;2023-11-21T13:02:30;8.90;82.50
21473;DHT22;10898;48.072;11.682;2023-11-21T13:04:33;8.90;82.10
21473;DHT22;10898;48.072;11.682;2023-11-21T13:06:36;9.00;81.50
21473;DHT22;10898;48.072;11.682;2023-11-21T13:08:44;9.00;81.10
21473;DHT22;10898;48.072;11.682;2023-11-21T13:10:46;9.00;80.80
21473;DHT22;10898;48.072;11.682;2023-11-21T13:12:51;9.00;80.90